sensor_id;sensor_type;location;lat;lon;timestamp;P1;durP1;ratioP1;P2;durP2;ratioP2
13855;SDS011;6998;53.608;9.958;2023-05-10T00:02:07;6.18;;;3.67;;
13855;SDS011;6998;53.608;9.958;2023-05-10T00:04:35;6.47;;;3.65;;
13855;SDS011;6998;53.608;9.958;2023-05-10T00:07:02;3.95;;;3.40;;
13855;SDS011;6998;53.608;9.958;2023-05-10T00:09:29;5.55;;;3.40;;
13855;SDS011;6998;53.608;9.958;2023-05-10T00:11:56;6.25;;;3.35;;
13855;SDS011;6998;53.608;9.958;2023-05-10T00:14:25;4.68;;;3.70;;
13855;SDS011;6998;53.608;9.958;2023-05-10T00:16:52;4.22;;;3.63;;
13855;SDS011;6998;53.608;9.958;2023-05-10T00:19:19;5.07;;;3.50;;
13855;SDS011;6998;53.608;9.958;2023-05-10T00:21:47;7.00;;;3.58;;
13855;SDS011;6998;53.608;9.958;2023-05-10T00:24:14;5.03;;;3.50;;
13855;SDS011;6998;53.608;9.958;2023-05-10T00:26:41;5.40;;;3.78;;
13855;SDS011;6998;53.608;9.958;2023-05-10T00:29:08;3.63;;;3.30;;
13855;SDS011;6998;53.608;9.958;2023-05-10T00:31:35;4.88;;;3.58;;
13855;SDS011;6998;53.608;9.958;2023-05-10T00:34:01;4.57;;;3.80;;
13855;SDS011;6998;53.608;9.958;2023-05-10T00:36:28;5.13;;;3.65;;
13855;SDS011;6998;53.608;9.958;2023-05-10T00:38:57;5.95;;;3.50;;
13855;SDS011;6998;53.608;9.958;2023-05-10T00:41:24;4.05;;;3.45;;
13855;SDS011;6998;53.608;9.958;2023-05-10T00:43:51;4.43;;;3.70;;
13855;SDS011;6998;53.608;9.958;2023-05-10T00:46:17;6.07;;;3.78;;
13855;SDS011;6998;53.608;9.958;2023-05-10T00:48:44;5.72;;;3.90;;
13855;SDS011;6998;53.608;9.958;2023-05-10T00:51:11;7.13;;;3.80;;
13855;SDS011;6998;53.608;9.958;2023-05-10T00:53:39;4.88;;;3.90;;
13855;SDS011;6998;53.608;9.958;2023-05-10T00:56:08;6.50;;;3.88;;
13855;SDS011;6998;53.608;9.958;2023-05-10T00:58:35;5.63;;;3.78;;
13855;SDS011;6998;53.608;9.958;2023-05-10T01:01:02;4.80;;;3.42;;
13855;SDS011;6998;53.608;9.958;2023-05-10T01:03:32;4.93;;;3.30;;
13855;SDS011;6998;53.608;9.958;2023-05-10T01:05:59;4.40;;;4.00;;
13855;SDS011;6998;53.608;9.958;2023-05-10T01:08:26;4.32;;;3.92;;
13855;SDS011;6998;53.608;9.958;2023-05-10T01:10:53;3.92;;;3.58;;
13855;SDS011;6998;53.608;9.958;2023-05-10T01:13:26;6.30;;;4.05;;
13855;SDS011;6998;53.608;9.958;2023-05-10T01:15:57;8.35;;;4.30;;
13855;SDS011;6998;53.608;9.958;2023-05-10T01:18:25;4.55;;;3.90;;
13855;SDS011;6998;53.608;9.958;2023-05-10T01:20:55;4.97;;;3.97;;
13855;SDS011;6998;53.608;9.958;2023-05-10T01:23:33;9.20;;;4.28;;
13855;SDS011;6998;53.608;9.958;2023-05-10T01:29:35;3.97;;;3.63;;
13855;SDS011;6998;53.608;9.958;2023-05-10T01:32:22;6.55;;;3.67;;
13855;SDS011;6998;53.608;9.958;2023-05-10T01:34:59;6.43;;;4.15;;
13855;SDS011;6998;53.608;9.958;2023-05-10T01:37:31;4.07;;;3.67;;
13855;SDS011;6998;53.608;9.958;2023-05-10T01:40:08;7.03;;;4.13;;
13855;SDS011;6998;53.608;9.958;2023-05-10T01:42:46;5.10;;;4.10;;
13855;SDS011;6998;53.608;9.958;2023-05-10T01:45:19;5.72;;;4.20;;
13855;SDS011;6998;53.608;9.958;2023-05-10T01:47:54;5.45;;;3.78;;
13855;SDS011;6998;53.608;9.958;2023-05-10T01:50:30;3.85;;;3.40;;
13855;SDS011;6998;53.608;9.958;2023-05-10T01:52:59;4.28;;;3.78;;
13855;SDS011;6998;53.608;9.958;2023-05-10T01:55:28;5.45;;;3.97;;
13855;SDS011;6998;53.608;9.958;2023-05-10T01:57:58;4.50;;;3.90;;
13855;SDS011;6998;53.608;9.958;2023-05-10T02:00:30;6.32;;;3.88;;
13855;SDS011;6998;53.608;9.958;2023-05-10T02:03:01;5.78;;;3.70;;
13855;SDS011;6998;53.608;9.958;2023-05-10T02:05:31;5.43;;;3.83;;
13855;SDS011;6998;53.608;9.958;2023-05-10T02:07:59;6.82;;;3.83;;
13855;SDS011;6998;53.608;9.958;2023-05-10T02:10:27;5.68;;;3.70;;
13855;SDS011;6998;53.608;9.958;2023-05-10T02:12:55;4.47;;;3.90;;
13855;SDS011;6998;53.608;9.958;2023-05-10T02:15:25;3.85;;;3.55;;
13855;SDS011;6998;53.608;9.958;2023-05-10T02:17:54;4.55;;;4.15;;
13855;SDS011;6998;53.608;9.958;2023-05-10T02:20:23;5.72;;;4.00;;
13855;SDS011;6998;53.608;9.958;2023-05-10T02:22:52;6.32;;;3.60;;
13855;SDS011;6998;53.608;9.958;2023-05-10T02:25:22;6.25;;;3.88;;
13855;SDS011;6998;53.608;9.958;2023-05-10T02:27:50;5.15;;;3.50;;
13855;SDS011;6998;53.608;9.958;2023-05-10T02:30:21;5.53;;;3.80;;
13855;SDS011;6998;53.608;9.958;2023-05-10T02:32:48;4.65;;;3.97;;
13855;SDS011;6998;53.608;9.958;2023-05-10T02:35:16;6.82;;;4.28;;
13855;SDS011;6998;53.608;9.958;2023-05-10T02:37:45;5.68;;;3.55;;
13855;SDS011;6998;53.608;9.958;2023-05-10T02:40:14;6.50;;;4.20;;
13855;SDS011;6998;53.608;9.958;2023-05-10T02:42:43;6.28;;;3.88;;
13855;SDS011;6998;53.608;9.958;2023-05-10T02:45:15;4.68;;;4.00;;
13855;SDS011;6998;53.608;9.958;2023-05-10T02:47:45;4.28;;;3.88;;
13855;SDS011;6998;53.608;9.958;2023-05-10T02:50:12;5.57;;;4.05;;
13855;SDS011;6998;53.608;9.958;2023-05-10T02:52:40;6.25;;;4.00;;
13855;SDS011;6998;53.608;9.958;2023-05-10T02:55:12;6.10;;;3.80;;
13855;SDS011;6998;53.608;9.958;2023-05-10T02:57:43;4.63;;;4.10;;
13855;SDS011;6998;53.608;9.958;2023-05-10T03:00:15;6.70;;;4.43;;
13855;SDS011;6998;53.608;9.958;2023-05-10T03:02:42;7.70;;;4.20;;
13855;SDS011;6998;53.608;9.958;2023-05-10T03:05:09;4.55;;;3.90;;
13855;SDS011;6998;53.608;9.958;2023-05-10T03:07:36;4.70;;;3.97;;
13855;SDS011;6998;53.608;9.958;2023-05-10T03:10:03;4.05;;;3.75;;
13855;SDS011;6998;53.608;9.958;2023-05-10T03:12:37;4.57;;;4.18;;
13855;SDS011;6998;53.608;9.958;2023-05-10T03:15:17;6.57;;;4.40;;
13855;SDS011;6998;53.608;9.958;2023-05-10T03:17:52;5.43;;;3.95;;
13855;SDS011;6998;53.608;9.958;2023-05-10T03:20:24;5.53;;;4.32;;
13855;SDS011;6998;53.608;9.958;2023-05-10T03:22:55;4.63;;;4.18;;
13855;SDS011;6998;53.608;9.958;2023-05-10T03:25:28;4.80;;;4.28;;
13855;SDS011;6998;53.608;9.958;2023-05-10T03:27:58;7.70;;;4.03;;
13855;SDS011;6998;53.608;9.958;2023-05-10T03:30:28;6.65;;;4.05;;
13855;SDS011;6998;53.608;9.958;2023-05-10T03:32:56;5.60;;;4.38;;
13855;SDS011;6998;53.608;9.958;2023-05-10T03:35:23;4.90;;;4.07;;
13855;SDS011;6998;53.608;9.958;2023-05-10T03:37:50;7.50;;;4.47;;
13855;SDS011;6998;53.608;9.958;2023-05-10T03:40:17;6.63;;;4.40;;
13855;SDS011;6998;53.608;9.958;2023-05-10T03:42:43;6.18;;;4.20;;
13855;SDS011;6998;53.608;9.958;2023-05-10T03:45:12;6.65;;;4.20;;
13855;SDS011;6998;53.608;9.958;2023-05-10T03:47:39;7.53;;;4.70;;
13855;SDS011;6998;53.608;9.958;2023-05-10T03:50:06;5.68;;;4.90;;
13855;SDS011;6998;53.608;9.958;2023-05-10T03:52:33;7.82;;;4.30;;
13855;SDS011;6998;53.608;9.958;2023-05-10T03:55:00;4.72;;;4.13;;
13855;SDS011;6998;53.608;9.958;2023-05-10T03:57:28;6.65;;;4.22;;
13855;SDS011;6998;53.608;9.958;2023-05-10T03:59:55;4.70;;;4.25;;
13855;SDS011;6998;53.608;9.958;2023-05-10T04:02:23;7.57;;;4.50;;
13855;SDS011;6998;53.608;9.958;2023-05-10T04:04:50;7.50;;;4.60;;
13855;SDS011;6998;53.608;9.958;2023-05-10T04:07:17;6.30;;;4.43;;
13855;SDS011;6998;53.608;9.958;2023-05-10T04:09:43;6.25;;;4.38;;
13855;SDS011;6998;53.608;9.958;2023-05-10T04:12:10;10.93;;;4.30;;
13855;SDS011;6998;53.608;9.958;2023-05-10T04:14:37;5.95;;;4.57;;
13855;SDS011;6998;53.608;9.958;2023-05-10T04:17:04;6.88;;;4.65;;
13855;SDS011;6998;53.608;9.958;2023-05-10T04:19:33;4.47;;;4.07;;
13855;SDS011;6998;53.608;9.958;2023-05-10T04:22:00;4.75;;;4.25;;
13855;SDS011;6998;53.608;9.958;2023-05-10T04:24:28;7.78;;;4.60;;
13855;SDS011;6998;53.608;9.958;2023-05-10T04:26:55;4.80;;;4.15;;
13855;SDS011;6998;53.608;9.958;2023-05-10T04:29:22;5.43;;;4.35;;
13855;SDS011;6998;53.608;9.958;2023-05-10T04:31:49;4.75;;;4.28;;
13855;SDS011;6998;53.608;9.958;2023-05-10T04:34:16;4.78;;;4.30;;
13855;SDS011;6998;53.608;9.958;2023-05-10T04:36:44;6.28;;;4.00;;
13855;SDS011;6998;53.608;9.958;2023-05-10T04:39:11;5.13;;;4.25;;
13855;SDS011;6998;53.608;9.958;2023-05-10T04:41:38;6.25;;;4.30;;
13855;SDS011;6998;53.608;9.958;2023-05-10T04:44:05;8.88;;;4.70;;
13855;SDS011;6998;53.608;9.958;2023-05-10T04:46:32;7.63;;;4.70;;
13855;SDS011;6998;53.608;9.958;2023-05-10T04:48:59;5.68;;;4.72;;
13855;SDS011;6998;53.608;9.958;2023-05-10T04:51:26;6.68;;;5.13;;
13855;SDS011;6998;53.608;9.958;2023-05-10T04:53:54;6.40;;;4.43;;
13855;SDS011;6998;53.608;9.958;2023-05-10T04:56:21;5.30;;;4.72;;
13855;SDS011;6998;53.608;9.958;2023-05-10T04:58:48;6.80;;;5.00;;
13855;SDS011;6998;53.608;9.958;2023-05-10T05:01:14;8.25;;;4.30;;
13855;SDS011;6998;53.608;9.958;2023-05-10T05:03:42;6.05;;;4.55;;
13855;SDS011;6998;53.608;9.958;2023-05-10T05:06:08;5.55;;;4.82;;
13855;SDS011;6998;53.608;9.958;2023-05-10T05:08:35;6.50;;;4.72;;
13855;SDS011;6998;53.608;9.958;2023-05-10T05:11:04;7.57;;;4.75;;
13855;SDS011;6998;53.608;9.958;2023-05-10T05:13:30;7.35;;;4.68;;
13855;SDS011;6998;53.608;9.958;2023-05-10T05:15:59;5.95;;;4.65;;
13855;SDS011;6998;53.608;9.958;2023-05-10T05:18:27;4.60;;;4.10;;
13855;SDS011;6998;53.608;9.958;2023-05-10T05:20:54;6.50;;;4.68;;
13855;SDS011;6998;53.608;9.958;2023-05-10T05:23:20;7.30;;;5.28;;
13855;SDS011;6998;53.608;9.958;2023-05-10T05:25:50;6.43;;;4.80;;
13855;SDS011;6998;53.608;9.958;2023-05-10T05:28:19;5.72;;;4.30;;
13855;SDS011;6998;53.608;9.958;2023-05-10T05:30:46;6.30;;;4.28;;
13855;SDS011;6998;53.608;9.958;2023-05-10T05:33:13;7.97;;;4.35;;
13855;SDS011;6998;53.608;9.958;2023-05-10T05:35:41;9.10;;;5.28;;
13855;SDS011;6998;53.608;9.958;2023-05-10T05:38:15;6.55;;;4.55;;
13855;SDS011;6998;53.608;9.958;2023-05-10T05:40:42;6.50;;;4.72;;
13855;SDS011;6998;53.608;9.958;2023-05-10T05:43:10;5.88;;;4.60;;
13855;SDS011;6998;53.608;9.958;2023-05-10T05:45:38;7.05;;;4.75;;
13855;SDS011;6998;53.608;9.958;2023-05-10T05:48:18;5.03;;;4.53;;
13855;SDS011;6998;53.608;9.958;2023-05-10T05:50:45;9.27;;;4.50;;
13855;SDS011;6998;53.608;9.958;2023-05-10T05:53:14;6.30;;;4.72;;
13855;SDS011;6998;53.608;9.958;2023-05-10T05:55:48;7.32;;;4.63;;
13855;SDS011;6998;53.608;9.958;2023-05-10T05:58:18;7.85;;;4.40;;
13855;SDS011;6998;53.608;9.958;2023-05-10T06:00:46;8.25;;;5.20;;
13855;SDS011;6998;53.608;9.958;2023-05-10T06:03:13;8.95;;;4.47;;
13855;SDS011;6998;53.608;9.958;2023-05-10T06:05:40;6.97;;;4.82;;
13855;SDS011;6998;53.608;9.958;2023-05-10T06:08:07;8.10;;;4.78;;
13855;SDS011;6998;53.608;9.958;2023-05-10T06:10:34;6.95;;;4.20;;
13855;SDS011;6998;53.608;9.958;2023-05-10T06:13:01;5.20;;;4.50;;
13855;SDS011;6998;53.608;9.958;2023-05-10T06:15:28;5.18;;;4.57;;
13855;SDS011;6998;53.608;9.958;2023-05-10T06:17:57;5.15;;;4.53;;
13855;SDS011;6998;53.608;9.958;2023-05-10T06:20:24;4.93;;;3.90;;
13855;SDS011;6998;53.608;9.958;2023-05-10T06:22:56;6.85;;;4.60;;
13855;SDS011;6998;53.608;9.958;2023-05-10T06:25:23;6.72;;;4.22;;
13855;SDS011;6998;53.608;9.958;2023-05-10T06:27:50;6.20;;;4.82;;
13855;SDS011;6998;53.608;9.958;2023-05-10T06:30:21;4.85;;;4.13;;
13855;SDS011;6998;53.608;9.958;2023-05-10T06:32:52;6.07;;;4.53;;
13855;SDS011;6998;53.608;9.958;2023-05-10T06:35:21;7.20;;;4.20;;
13855;SDS011;6998;53.608;9.958;2023-05-10T06:37:48;4.78;;;4.28;;
13855;SDS011;6998;53.608;9.958;2023-05-10T06:40:16;9.05;;;4.32;;
13855;SDS011;6998;53.608;9.958;2023-05-10T06:42:43;6.82;;;4.07;;
13855;SDS011;6998;53.608;9.958;2023-05-10T06:45:11;7.22;;;4.53;;
13855;SDS011;6998;53.608;9.958;2023-05-10T06:47:38;8.90;;;4.40;;
13855;SDS011;6998;53.608;9.958;2023-05-10T06:50:05;9.85;;;4.63;;
13855;SDS011;6998;53.608;9.958;2023-05-10T06:52:34;8.65;;;4.65;;
13855;SDS011;6998;53.608;9.958;2023-05-10T06:55:01;7.03;;;4.72;;
13855;SDS011;6998;53.608;9.958;2023-05-10T06:57:28;5.40;;;4.38;;
13855;SDS011;6998;53.608;9.958;2023-05-10T06:59:55;7.03;;;4.63;;
13855;SDS011;6998;53.608;9.958;2023-05-10T07:02:22;8.15;;;4.60;;
13855;SDS011;6998;53.608;9.958;2023-05-10T07:04:49;12.07;;;4.70;;
13855;SDS011;6998;53.608;9.958;2023-05-10T07:07:16;6.63;;;5.28;;
13855;SDS011;6998;53.608;9.958;2023-05-10T07:09:45;5.38;;;4.78;;
13855;SDS011;6998;53.608;9.958;2023-05-10T07:12:12;5.82;;;4.47;;
13855;SDS011;6998;53.608;9.958;2023-05-10T07:14:41;8.25;;;5.07;;
13855;SDS011;6998;53.608;9.958;2023-05-10T07:17:08;7.05;;;4.97;;
13855;SDS011;6998;53.608;9.958;2023-05-10T07:19:35;6.05;;;5.00;;
13855;SDS011;6998;53.608;9.958;2023-05-10T07:22:02;5.20;;;4.70;;
13855;SDS011;6998;53.608;9.958;2023-05-10T07:24:28;8.93;;;5.15;;
13855;SDS011;6998;53.608;9.958;2023-05-10T07:26:57;9.40;;;4.90;;
13855;SDS011;6998;53.608;9.958;2023-05-10T07:29:24;4.90;;;4.40;;
13855;SDS011;6998;53.608;9.958;2023-05-10T07:31:51;7.75;;;4.70;;
13855;SDS011;6998;53.608;9.958;2023-05-10T07:34:18;4.68;;;4.13;;
13855;SDS011;6998;53.608;9.958;2023-05-10T07:36:45;5.22;;;4.28;;
13855;SDS011;6998;53.608;9.958;2023-05-10T07:39:12;6.88;;;4.65;;
13855;SDS011;6998;53.608;9.958;2023-05-10T07:41:39;9.85;;;4.90;;
13855;SDS011;6998;53.608;9.958;2023-05-10T07:44:07;7.43;;;5.00;;
13855;SDS011;6998;53.608;9.958;2023-05-10T07:46:34;7.30;;;5.03;;
13855;SDS011;6998;53.608;9.958;2023-05-10T07:49:01;6.40;;;5.07;;
13855;SDS011;6998;53.608;9.958;2023-05-10T07:51:27;6.00;;;4.65;;
13855;SDS011;6998;53.608;9.958;2023-05-10T07:53:54;5.15;;;4.65;;
13855;SDS011;6998;53.608;9.958;2023-05-10T07:56:23;5.75;;;5.00;;
13855;SDS011;6998;53.608;9.958;2023-05-10T07:58:54;6.57;;;4.50;;
13855;SDS011;6998;53.608;9.958;2023-05-10T08:01:23;5.85;;;4.13;;
13855;SDS011;6998;53.608;9.958;2023-05-10T08:03:50;4.70;;;4.05;;
13855;SDS011;6998;53.608;9.958;2023-05-10T08:06:18;7.50;;;4.20;;
13855;SDS011;6998;53.608;9.958;2023-05-10T08:08:46;6.55;;;4.72;;
13855;SDS011;6998;53.608;9.958;2023-05-10T08:11:15;9.02;;;4.38;;
13855;SDS011;6998;53.608;9.958;2023-05-10T08:13:42;4.30;;;3.90;;
13855;SDS011;6998;53.608;9.958;2023-05-10T08:16:09;5.45;;;4.18;;
13855;SDS011;6998;53.608;9.958;2023-05-10T08:18:40;8.57;;;4.55;;
13855;SDS011;6998;53.608;9.958;2023-05-10T08:21:07;6.63;;;4.18;;
13855;SDS011;6998;53.608;9.958;2023-05-10T08:23:36;5.72;;;4.50;;
13855;SDS011;6998;53.608;9.958;2023-05-10T08:26:03;4.45;;;4.03;;
13855;SDS011;6998;53.608;9.958;2023-05-10T08:28:30;5.68;;;4.32;;
13855;SDS011;6998;53.608;9.958;2023-05-10T08:30:57;5.35;;;3.97;;
13855;SDS011;6998;53.608;9.958;2023-05-10T08:33:24;7.38;;;4.25;;
13855;SDS011;6998;53.608;9.958;2023-05-10T08:35:52;5.43;;;4.30;;
13855;SDS011;6998;53.608;9.958;2023-05-10T08:38:19;7.53;;;4.75;;
13855;SDS011;6998;53.608;9.958;2023-05-10T08:40:46;6.10;;;4.60;;
13855;SDS011;6998;53.608;9.958;2023-05-10T08:43:15;7.07;;;4.45;;
13855;SDS011;6998;53.608;9.958;2023-05-10T08:45:43;5.95;;;4.20;;
13855;SDS011;6998;53.608;9.958;2023-05-10T08:48:11;8.07;;;4.57;;
13855;SDS011;6998;53.608;9.958;2023-05-10T08:50:40;5.40;;;4.90;;
13855;SDS011;6998;53.608;9.958;2023-05-10T08:53:10;7.22;;;4.50;;
13855;SDS011;6998;53.608;9.958;2023-05-10T08:55:39;6.18;;;4.32;;
13855;SDS011;6998;53.608;9.958;2023-05-10T08:58:07;6.57;;;4.53;;
13855;SDS011;6998;53.608;9.958;2023-05-10T09:00:35;6.28;;;4.38;;
13855;SDS011;6998;53.608;9.958;2023-05-10T09:03:03;6.45;;;4.45;;
13855;SDS011;6998;53.608;9.958;2023-05-10T09:05:31;5.55;;;4.95;;
13855;SDS011;6998;53.608;9.958;2023-05-10T09:07:58;5.70;;;4.22;;
13855;SDS011;6998;53.608;9.958;2023-05-10T09:10:26;9.25;;;4.70;;
13855;SDS011;6998;53.608;9.958;2023-05-10T09:12:55;4.90;;;4.40;;
13855;SDS011;6998;53.608;9.958;2023-05-10T09:15:22;6.18;;;4.57;;
13855;SDS011;6998;53.608;9.958;2023-05-10T09:17:49;8.80;;;5.03;;
13855;SDS011;6998;53.608;9.958;2023-05-10T09:20:16;9.65;;;4.25;;
13855;SDS011;6998;53.608;9.958;2023-05-10T09:22:43;5.30;;;4.28;;
13855;SDS011;6998;53.608;9.958;2023-05-10T09:25:10;5.32;;;4.40;;
13855;SDS011;6998;53.608;9.958;2023-05-10T09:27:45;4.90;;;4.50;;
13855;SDS011;6998;53.608;9.958;2023-05-10T09:30:17;5.65;;;4.55;;
13855;SDS011;6998;53.608;9.958;2023-05-10T09:32:51;6.03;;;4.82;;
13855;SDS011;6998;53.608;9.958;2023-05-10T09:35:26;7.10;;;5.00;;
13855;SDS011;6998;53.608;9.958;2023-05-10T09:37:56;6.07;;;5.47;;
13855;SDS011;6998;53.608;9.958;2023-05-10T09:40:25;6.60;;;4.82;;
13855;SDS011;6998;53.608;9.958;2023-05-10T09:42:59;7.65;;;5.43;;
13855;SDS011;6998;53.608;9.958;2023-05-10T09:45:28;6.13;;;5.40;;
13855;SDS011;6998;53.608;9.958;2023-05-10T09:47:56;9.82;;;5.35;;
13855;SDS011;6998;53.608;9.958;2023-05-10T09:50:27;6.75;;;5.10;;
13855;SDS011;6998;53.608;9.958;2023-05-10T09:52:57;10.20;;;5.60;;
13855;SDS011;6998;53.608;9.958;2023-05-10T09:55:25;6.63;;;5.70;;
13855;SDS011;6998;53.608;9.958;2023-05-10T09:58:11;6.93;;;5.15;;
13855;SDS011;6998;53.608;9.958;2023-05-10T10:00:40;6.40;;;5.68;;
13855;SDS011;6998;53.608;9.958;2023-05-10T10:03:11;6.30;;;5.43;;
13855;SDS011;6998;53.608;9.958;2023-05-10T10:05:40;9.02;;;5.68;;
13855;SDS011;6998;53.608;9.958;2023-05-10T10:08:08;8.30;;;5.53;;
13855;SDS011;6998;53.608;9.958;2023-05-10T10:10:35;6.85;;;6.07;;
13855;SDS011;6998;53.608;9.958;2023-05-10T10:13:03;8.23;;;6.10;;
13855;SDS011;6998;53.608;9.958;2023-05-10T10:15:32;10.02;;;6.18;;
13855;SDS011;6998;53.608;9.958;2023-05-10T10:17:59;7.35;;;6.32;;
13855;SDS011;6998;53.608;9.958;2023-05-10T10:20:28;7.68;;;6.60;;
13855;SDS011;6998;53.608;9.958;2023-05-10T10:22:55;10.43;;;6.60;;
13855;SDS011;6998;53.608;9.958;2023-05-10T10:25:22;7.85;;;7.07;;
13855;SDS011;6998;53.608;9.958;2023-05-10T10:27:55;7.75;;;7.03;;
13855;SDS011;6998;53.608;9.958;2023-05-10T10:30:38;9.85;;;8.10;;
13855;SDS011;6998;53.608;9.958;2023-05-10T10:33:18;8.02;;;6.90;;
13855;SDS011;6998;53.608;9.958;2023-05-10T10:35:57;8.90;;;6.72;;
13855;SDS011;6998;53.608;9.958;2023-05-10T10:38:25;8.70;;;7.43;;
13855;SDS011;6998;53.608;9.958;2023-05-10T10:41:02;8.00;;;7.13;;
13855;SDS011;6998;53.608;9.958;2023-05-10T10:43:35;9.13;;;6.63;;
13855;SDS011;6998;53.608;9.958;2023-05-10T10:48:49;7.70;;;6.88;;
13855;SDS011;6998;53.608;9.958;2023-05-10T10:51:17;7.53;;;6.93;;
13855;SDS011;6998;53.608;9.958;2023-05-10T10:53:44;9.43;;;8.40;;
13855;SDS011;6998;53.608;9.958;2023-05-10T10:56:13;8.07;;;7.10;;
13855;SDS011;6998;53.608;9.958;2023-05-10T10:58:40;10.25;;;7.60;;
13855;SDS011;6998;53.608;9.958;2023-05-10T11:01:15;8.52;;;7.50;;
13855;SDS011;6998;53.608;9.958;2023-05-10T11:06:47;9.27;;;7.10;;
13855;SDS011;6998;53.608;9.958;2023-05-10T11:09:14;8.65;;;7.65;;
13855;SDS011;6998;53.608;9.958;2023-05-10T11:11:51;8.73;;;7.15;;
13855;SDS011;6998;53.608;9.958;2023-05-10T11:14:20;8.65;;;7.75;;
13855;SDS011;6998;53.608;9.958;2023-05-10T11:16:47;8.43;;;7.63;;
13855;SDS011;6998;53.608;9.958;2023-05-10T11:19:16;7.57;;;6.60;;
13855;SDS011;6998;53.608;9.958;2023-05-10T11:21:45;9.45;;;8.55;;
13855;SDS011;6998;53.608;9.958;2023-05-10T11:24:13;9.13;;;8.23;;
13855;SDS011;6998;53.608;9.958;2023-05-10T11:26:41;9.43;;;8.63;;
13855;SDS011;6998;53.608;9.958;2023-05-10T11:29:08;10.48;;;8.43;;
13855;SDS011;6998;53.608;9.958;2023-05-10T11:31:38;9.45;;;8.63;;
13855;SDS011;6998;53.608;9.958;2023-05-10T11:34:09;9.07;;;8.13;;
13855;SDS011;6998;53.608;9.958;2023-05-10T11:36:38;8.57;;;7.18;;
13855;SDS011;6998;53.608;9.958;2023-05-10T11:39:05;8.63;;;7.90;;
13855;SDS011;6998;53.608;9.958;2023-05-10T11:41:32;9.00;;;8.20;;
13855;SDS011;6998;53.608;9.958;2023-05-10T11:43:58;8.18;;;7.47;;
13855;SDS011;6998;53.608;9.958;2023-05-10T11:46:26;8.73;;;7.93;;
13855;SDS011;6998;53.608;9.958;2023-05-10T11:48:55;8.80;;;8.00;;
13855;SDS011;6998;53.608;9.958;2023-05-10T11:51:25;9.07;;;8.25;;
13855;SDS011;6998;53.608;9.958;2023-05-10T11:53:54;9.45;;;7.97;;
13855;SDS011;6998;53.608;9.958;2023-05-10T11:56:22;8.13;;;7.35;;
13855;SDS011;6998;53.608;9.958;2023-05-10T11:58:54;8.60;;;7.90;;
13855;SDS011;6998;53.608;9.958;2023-05-10T12:01:26;9.02;;;8.13;;
13855;SDS011;6998;53.608;9.958;2023-05-10T12:03:54;9.20;;;8.40;;
13855;SDS011;6998;53.608;9.958;2023-05-10T12:06:25;10.65;;;9.55;;
13855;SDS011;6998;53.608;9.958;2023-05-10T12:08:54;8.68;;;7.97;;
13855;SDS011;6998;53.608;9.958;2023-05-10T12:11:24;10.10;;;9.25;;
13855;SDS011;6998;53.608;9.958;2023-05-10T12:13:52;10.75;;;9.70;;
13855;SDS011;6998;53.608;9.958;2023-05-10T12:16:20;9.75;;;8.80;;
13855;SDS011;6998;53.608;9.958;2023-05-10T12:18:47;9.25;;;8.50;;
13855;SDS011;6998;53.608;9.958;2023-05-10T12:21:16;9.00;;;8.20;;
13855;SDS011;6998;53.608;9.958;2023-05-10T12:23:43;8.52;;;7.72;;
13855;SDS011;6998;53.608;9.958;2023-05-10T12:26:13;9.05;;;7.70;;
13855;SDS011;6998;53.608;9.958;2023-05-10T12:28:40;9.30;;;8.40;;
13855;SDS011;6998;53.608;9.958;2023-05-10T12:31:07;8.38;;;7.68;;
13855;SDS011;6998;53.608;9.958;2023-05-10T12:33:35;8.68;;;7.85;;
13855;SDS011;6998;53.608;9.958;2023-05-10T12:36:04;9.15;;;8.35;;
13855;SDS011;6998;53.608;9.958;2023-05-10T12:38:32;8.90;;;8.07;;
13855;SDS011;6998;53.608;9.958;2023-05-10T12:41:00;7.70;;;7.00;;
13855;SDS011;6998;53.608;9.958;2023-05-10T12:43:30;7.85;;;7.15;;
13855;SDS011;6998;53.608;9.958;2023-05-10T12:45:57;9.00;;;7.20;;
13855;SDS011;6998;53.608;9.958;2023-05-10T12:48:24;7.53;;;6.78;;
13855;SDS011;6998;53.608;9.958;2023-05-10T12:50:53;7.85;;;6.82;;
13855;SDS011;6998;53.608;9.958;2023-05-10T12:53:25;6.38;;;5.88;;
13855;SDS011;6998;53.608;9.958;2023-05-10T12:56:14;7.45;;;6.70;;
13855;SDS011;6998;53.608;9.958;2023-05-10T13:02:03;7.07;;;6.32;;
13855;SDS011;6998;53.608;9.958;2023-05-10T13:04:43;7.32;;;6.45;;
13855;SDS011;6998;53.608;9.958;2023-05-10T13:07:11;6.90;;;6.20;;
13855;SDS011;6998;53.608;9.958;2023-05-10T13:09:38;8.27;;;6.82;;
13855;SDS011;6998;53.608;9.958;2023-05-10T13:12:11;7.18;;;6.25;;
13855;SDS011;6998;53.608;9.958;2023-05-10T13:14:51;7.15;;;6.20;;
13855;SDS011;6998;53.608;9.958;2023-05-10T13:17:30;5.88;;;5.38;;
13855;SDS011;6998;53.608;9.958;2023-05-10T13:20:16;6.63;;;5.93;;
13855;SDS011;6998;53.608;9.958;2023-05-10T13:23:34;6.97;;;6.22;;
13855;SDS011;6998;53.608;9.958;2023-05-10T13:25:52;9.13;;;6.63;;
13855;SDS011;6998;53.608;9.958;2023-05-10T13:28:23;6.70;;;6.05;;
13855;SDS011;6998;53.608;9.958;2023-05-10T13:30:51;9.43;;;8.32;;
13855;SDS011;6998;53.608;9.958;2023-05-10T13:33:19;8.98;;;8.07;;
13855;SDS011;6998;53.608;9.958;2023-05-10T13:35:49;9.13;;;8.32;;
13855;SDS011;6998;53.608;9.958;2023-05-10T13:38:23;8.43;;;7.63;;
13855;SDS011;6998;53.608;9.958;2023-05-10T13:41:09;7.20;;;6.60;;
13855;SDS011;6998;53.608;9.958;2023-05-10T13:43:40;9.18;;;6.88;;
13855;SDS011;6998;53.608;9.958;2023-05-10T13:46:07;8.45;;;6.93;;
13855;SDS011;6998;53.608;9.958;2023-05-10T13:48:43;10.15;;;7.50;;
13855;SDS011;6998;53.608;9.958;2023-05-10T13:51:10;7.38;;;6.28;;
13855;SDS011;6998;53.608;9.958;2023-05-10T13:53:40;9.82;;;7.13;;
13855;SDS011;6998;53.608;9.958;2023-05-10T13:56:07;8.80;;;6.70;;
13855;SDS011;6998;53.608;9.958;2023-05-10T13:58:37;8.63;;;7.03;;
13855;SDS011;6998;53.608;9.958;2023-05-10T14:01:04;7.00;;;6.30;;
13855;SDS011;6998;53.608;9.958;2023-05-10T14:03:31;6.90;;;6.28;;
13855;SDS011;6998;53.608;9.958;2023-05-10T14:06:00;8.00;;;6.20;;
13855;SDS011;6998;53.608;9.958;2023-05-10T14:08:27;5.80;;;5.30;;
13855;SDS011;6998;53.608;9.958;2023-05-10T14:10:54;6.55;;;5.95;;
13855;SDS011;6998;53.608;9.958;2023-05-10T14:13:22;7.80;;;6.38;;
13855;SDS011;6998;53.608;9.958;2023-05-10T14:15:49;6.05;;;5.45;;
13855;SDS011;6998;53.608;9.958;2023-05-10T14:18:16;6.00;;;5.47;;
13855;SDS011;6998;53.608;9.958;2023-05-10T14:20:43;6.55;;;6.05;;
13855;SDS011;6998;53.608;9.958;2023-05-10T14:23:11;5.70;;;5.20;;
13855;SDS011;6998;53.608;9.958;2023-05-10T14:25:39;7.05;;;6.35;;
13855;SDS011;6998;53.608;9.958;2023-05-10T14:28:06;7.65;;;6.40;;
13855;SDS011;6998;53.608;9.958;2023-05-10T14:30:33;7.20;;;6.60;;
13855;SDS011;6998;53.608;9.958;2023-05-10T14:33:00;6.28;;;5.75;;
13855;SDS011;6998;53.608;9.958;2023-05-10T14:35:27;6.30;;;5.80;;
13855;SDS011;6998;53.608;9.958;2023-05-10T14:37:55;5.63;;;5.13;;
13855;SDS011;6998;53.608;9.958;2023-05-10T14:40:24;6.78;;;6.28;;
13855;SDS011;6998;53.608;9.958;2023-05-10T14:42:51;6.65;;;6.15;;
13855;SDS011;6998;53.608;9.958;2023-05-10T14:45:18;6.18;;;5.65;;
13855;SDS011;6998;53.608;9.958;2023-05-10T14:47:46;6.80;;;6.20;;
13855;SDS011;6998;53.608;9.958;2023-05-10T14:50:12;5.70;;;5.30;;
13855;SDS011;6998;53.608;9.958;2023-05-10T14:52:39;6.30;;;5.80;;
13855;SDS011;6998;53.608;9.958;2023-05-10T14:55:06;7.32;;;6.32;;
13855;SDS011;6998;53.608;9.958;2023-05-10T14:57:35;5.97;;;5.38;;
13855;SDS011;6998;53.608;9.958;2023-05-10T15:00:03;5.90;;;5.40;;
13855;SDS011;6998;53.608;9.958;2023-05-10T15:02:30;5.70;;;5.20;;
13855;SDS011;6998;53.608;9.958;2023-05-10T15:04:57;8.07;;;5.90;;
13855;SDS011;6998;53.608;9.958;2023-05-10T15:07:24;6.25;;;5.75;;
13855;SDS011;6998;53.608;9.958;2023-05-10T15:09:51;6.32;;;5.72;;
13855;SDS011;6998;53.608;9.958;2023-05-10T15:12:17;6.10;;;5.50;;
13855;SDS011;6998;53.608;9.958;2023-05-10T15:14:46;6.78;;;6.15;;
13855;SDS011;6998;53.608;9.958;2023-05-10T15:17:12;6.07;;;5.57;;
13855;SDS011;6998;53.608;9.958;2023-05-10T15:19:39;5.63;;;5.18;;
13855;SDS011;6998;53.608;9.958;2023-05-10T15:22:06;5.60;;;5.10;;
13855;SDS011;6998;53.608;9.958;2023-05-10T15:24:33;6.30;;;5.70;;